createdAt,value
2017-05-29T06:53:13.440Z,73.61
2017-05-29T06:54:14.091Z,73.07
2017-05-29T06:55:14.759Z,71.18
2017-05-29T06:56:15.409Z,71.08
2017-05-29T06:57:16.081Z,70.25
2017-05-29T06:58:16.763Z,68.74
2017-05-29T06:59:17.417Z,66.94
2017-05-29T07:00:18.074Z,65.82
2017-05-29T07:01:18.759Z,65.98
2017-05-29T07:02:19.429Z,66.36
2017-05-29T07:03:20.097Z,65.14
2017-05-29T07:04:20.774Z,64.18
2017-05-29T07:05:21.514Z,65.59
2017-05-29T07:06:22.247Z,66.66
2017-05-29T07:07:22.948Z,66.56
2017-05-29T07:08:23.626Z,66.94
2017-05-29T07:09:24.294Z,66.11
2017-05-29T07:10:24.963Z,63.73
2017-05-29T07:11:27.229Z,62.31
2017-05-29T07:12:30.800Z,61.37
2017-05-29T07:13:32.378Z,61.44
2017-05-29T07:14:34.943Z,62.47
2017-05-29T07:15:37.558Z,63.31
2017-05-29T07:16:40.164Z,64.37
2017-05-29T07:17:42.476Z,63.79
2017-05-29T07:18:44.985Z,64.37
2017-05-29T07:19:47.033Z,64.08
2017-05-29T07:20:47.774Z,63.6
2017-05-29T07:21:48.490Z,64.53
2017-05-29T07:22:49.519Z,65.59
2017-05-29T07:23:50.566Z,66.46
2017-05-29T07:24:51.725Z,65.88
2017-05-29T07:25:52.426Z,65.69
2017-05-29T07:26:53.110Z,65.5
2017-05-29T07:27:53.794Z,66.24
2017-05-29T07:28:54.478Z,67
2017-05-29T07:29:55.149Z,67.49
2017-05-29T07:30:55.818Z,67.68
2017-05-29T07:31:56.508Z,67.58
2017-05-29T07:32:57.144Z,66.91
2017-05-29T07:33:57.824Z,68.26
2017-05-29T07:34:58.519Z,67.33
2017-05-29T07:35:59.229Z,66.08
2017-05-29T07:36:59.920Z,65.05
2017-05-29T07:38:00.605Z,62.57
2017-05-29T07:39:01.291Z,60.99
2017-05-29T07:40:01.981Z,59.83
2017-05-29T07:41:02.653Z,58.6
2017-05-29T07:42:03.325Z,57.46
2017-05-29T07:43:03.998Z,56.65
2017-05-29T07:44:04.676Z,55.68
2017-05-29T07:45:05.383Z,54.81
2017-05-29T07:46:06.070Z,55
2017-05-29T07:47:06.754Z,54.91
2017-05-29T07:48:07.429Z,54.91
2017-05-29T07:49:08.128Z,54.19
2017-05-29T07:50:08.809Z,54.26
2017-05-29T07:51:09.486Z,55
2017-05-29T07:52:10.156Z,55.56
2017-05-29T07:53:10.830Z,57.66
2017-05-29T07:54:11.507Z,58.5
2017-05-29T07:55:12.186Z,57.99
2017-05-29T07:56:12.854Z,59.08
2017-05-29T07:57:13.557Z,59.08
2017-05-29T07:58:14.241Z,59.73
2017-05-29T07:59:14.915Z,59.95
2017-05-29T08:00:15.612Z,58.95
2017-05-29T08:01:16.315Z,60.67
2017-05-29T08:02:16.994Z,61.05
2017-05-29T08:03:17.663Z,61.12
2017-05-29T08:04:18.353Z,61.89
2017-05-29T08:05:19.024Z,62.08
2017-05-29T08:06:19.704Z,62.66
2017-05-29T08:07:20.403Z,62.57
2017-05-29T08:08:21.141Z,62.47
2017-05-29T08:09:21.818Z,62.28
2017-05-29T08:10:22.517Z,62.47
2017-05-29T08:11:23.189Z,62.21
2017-05-29T08:12:23.862Z,62.57
2017-05-29T08:13:24.545Z,62.08
2017-05-29T08:14:25.238Z,61.92
2017-05-29T08:15:25.913Z,62.31
2017-05-29T08:16:26.578Z,62.95
2017-05-29T08:17:27.256Z,62.98
2017-05-29T08:18:27.946Z,62.79
2017-05-29T08:19:28.636Z,62.31
2017-05-29T08:20:29.305Z,62.7
2017-05-29T08:21:30.001Z,63.05
2017-05-29T08:22:30.683Z,62.95
2017-05-29T08:23:31.380Z,62.86
2017-05-29T08:24:32.073Z,63.82
2017-05-29T08:25:32.744Z,63.63
2017-05-29T08:26:33.406Z,63.43
2017-05-29T08:27:34.078Z,63.34
2017-05-29T08:28:34.774Z,63.08
2017-05-29T08:29:35.474Z,63.47
2017-05-29T08:30:36.147Z,62.31
2017-05-29T08:31:36.822Z,62.15
2017-05-29T08:32:37.516Z,61.57
2017-05-29T08:33:38.208Z,60.99
2017-05-29T08:34:38.884Z,61.27
2017-05-29T08:35:39.593Z,60.89
2017-05-29T08:36:40.270Z,60.14
2017-05-29T08:37:40.945Z,60.69
2017-05-29T08:38:41.652Z,61.66
2017-05-29T08:39:42.345Z,62.02
2017-05-29T08:40:43.272Z,61.57
2017-05-29T08:41:43.973Z,61.83
2017-05-29T08:42:44.674Z,61.47
2017-05-29T08:43:45.425Z,60.82
2017-05-29T08:44:46.209Z,60.63
2017-05-29T08:45:46.887Z,60.34
2017-05-29T08:46:47.573Z,60.21
2017-05-29T08:47:48.257Z,60.5
2017-05-29T08:48:48.935Z,60.63
2017-05-29T08:49:49.632Z,59.38
2017-05-29T08:50:50.304Z,58.98
2017-05-29T08:51:51.067Z,58.98
2017-05-29T08:52:51.759Z,58.6
2017-05-29T08:53:52.432Z,59.21
2017-05-29T08:54:53.123Z,58.53
2017-05-29T08:55:53.823Z,58.34
2017-05-29T08:56:54.496Z,58.53
2017-05-29T08:57:55.202Z,58.44
2017-05-29T08:58:55.889Z,58.04
2017-05-29T08:59:56.665Z,58.14
2017-05-29T09:00:57.385Z,57.56
2017-05-29T09:01:58.102Z,58.14
2017-05-29T09:02:58.827Z,58.53
2017-05-29T09:03:59.498Z,58.98
2017-05-29T09:05:00.182Z,59.47
2017-05-29T09:06:00.867Z,59.76
2017-05-29T09:07:01.538Z,59.56
2017-05-29T09:08:02.308Z,59.56
2017-05-29T09:09:02.979Z,59.66
2017-05-29T09:10:03.653Z,60.31
2017-05-29T09:11:04.343Z,60.31
2017-05-29T09:12:05.028Z,59.83
2017-05-29T09:15:41.204Z,60.69
2017-05-29T09:16:41.960Z,60.63
2017-05-29T09:17:42.756Z,59.95
2017-05-29T09:18:43.451Z,59.5
2017-05-29T09:19:44.145Z,58.63
2017-05-29T09:20:44.992Z,58.5
2017-05-29T09:21:45.674Z,59.56
2017-05-29T09:22:46.360Z,59.86
2017-05-29T09:23:47.050Z,60.69
2017-05-29T09:24:47.735Z,61.47
2017-05-29T09:25:48.434Z,61.76
2017-05-29T09:26:49.138Z,60.79
2017-05-29T09:27:49.850Z,60.63
2017-05-29T09:28:50.617Z,59.83
2017-05-29T09:29:51.677Z,61.63
2017-05-29T09:30:52.489Z,62.92
2017-05-29T09:31:53.172Z,65.27
2017-05-29T09:32:53.859Z,67.49
2017-05-29T09:33:54.537Z,68.61
2017-05-29T09:34:55.229Z,68.52
2017-05-29T09:35:55.896Z,69.09
2017-05-29T09:36:56.618Z,67.78
2017-05-29T09:37:57.285Z,67.68
2017-05-29T09:38:57.964Z,66.97
2017-05-29T09:39:58.670Z,65.24
2017-05-29T09:40:59.371Z,64.01
2017-05-29T09:42:00.083Z,63.24
2017-05-29T09:43:00.773Z,62.5
2017-05-29T09:44:01.481Z,62.53
2017-05-29T09:45:02.175Z,62.15
2017-05-29T09:46:02.870Z,62.34
2017-05-29T09:47:03.571Z,62.31
2017-05-29T09:48:04.256Z,62.47
2017-05-29T09:49:04.937Z,62.86
2017-05-29T09:50:05.676Z,62.5
2017-05-29T09:51:06.382Z,61.63
2017-05-29T09:52:07.092Z,62.31
2017-05-29T09:53:07.792Z,62.7
2017-05-29T09:54:08.473Z,63.05
2017-05-29T09:55:09.170Z,64.21
2017-05-29T09:56:09.908Z,65.08
2017-05-29T09:57:10.594Z,64.66
2017-05-29T09:58:11.285Z,65.63
2017-05-29T09:59:11.962Z,65.63
2017-05-29T10:00:13.010Z,65.82
2017-05-29T10:01:14.051Z,66.4
2017-05-29T10:02:14.865Z,66.75
2017-05-29T10:03:15.681Z,67.04
2017-05-29T10:04:16.428Z,67.62
2017-05-29T10:05:17.108Z,69.29
2017-05-29T10:06:18.061Z,69.87
2017-05-29T10:07:18.802Z,69.13
2017-05-29T10:08:19.563Z,69.61
2017-05-29T10:09:20.237Z,69.42
2017-05-29T10:10:21.228Z,68.59
2017-05-29T10:11:21.950Z,68.1
2017-05-29T10:12:22.661Z,67.81
2017-05-29T10:13:23.372Z,66.27
2017-05-29T10:14:24.074Z,65.88
2017-05-29T10:15:24.757Z,66.46
2017-05-29T10:16:25.473Z,67.23
2017-05-29T10:17:26.165Z,66.75
2017-05-29T10:18:26.860Z,66.17
2017-05-29T10:19:27.564Z,65.78
2017-05-29T10:20:28.235Z,66.56
2017-05-29T10:21:28.933Z,66.08
2017-05-29T10:22:29.638Z,66.27
2017-05-29T10:23:30.310Z,68.16
2017-05-29T10:24:31.128Z,68.65
2017-05-29T10:25:31.927Z,68.49
2017-05-29T10:26:32.616Z,68.35
2017-05-29T10:27:33.309Z,69.32
2017-05-29T10:28:34.098Z,68.93
2017-05-29T10:29:34.773Z,69.57
2017-05-29T10:30:35.462Z,69.61
2017-05-29T10:31:36.141Z,68.93
2017-05-29T10:32:36.837Z,67.78
2017-05-29T10:33:37.522Z,67.78
2017-05-29T10:34:38.244Z,66.56
2017-05-29T10:35:38.920Z,66.46
2017-05-29T10:36:39.601Z,65.53
2017-05-29T10:37:40.272Z,65.4
2017-05-29T10:38:41.013Z,66.75
2017-05-29T10:39:41.683Z,67.33
2017-05-29T10:40:42.350Z,66.3
2017-05-29T10:41:43.078Z,66.01
2017-05-29T10:42:43.730Z,66.11
2017-05-29T10:43:44.414Z,66.2
2017-05-29T10:44:45.076Z,66.3
2017-05-29T10:45:45.750Z,65.72
2017-05-29T10:46:46.459Z,65.4
2017-05-29T10:47:47.149Z,65.91
2017-05-29T10:48:47.816Z,65.34
2017-05-29T10:49:48.493Z,65.05
2017-05-29T10:50:49.159Z,64.18
2017-05-29T10:51:49.869Z,64.18
2017-05-29T10:52:50.547Z,64.28
2017-05-29T10:53:51.220Z,64.28
2017-05-29T10:54:51.895Z,64.47
2017-05-29T10:55:52.573Z,65.05
2017-05-29T10:56:53.242Z,64.01
2017-05-29T10:57:53.914Z,62.86
2017-05-29T10:58:54.590Z,62.89
2017-05-29T10:59:55.258Z,63.76
2017-05-29T11:00:55.952Z,62.98
2017-05-29T11:01:56.617Z,62.6
2017-05-29T11:02:57.289Z,62.21
2017-05-29T11:03:57.963Z,62.5
2017-05-29T11:04:58.636Z,63.11
2017-05-29T11:05:59.327Z,63.02
2017-05-29T11:07:00.014Z,63.79
2017-05-29T11:08:00.684Z,66.98
2017-05-29T11:09:01.372Z,68.04
2017-05-29T11:10:02.065Z,66.01
2017-05-29T11:11:02.759Z,66.69
2017-05-29T11:12:03.433Z,62.73
2017-05-29T11:13:04.102Z,64.08
2017-05-29T11:14:04.777Z,62.05
2017-05-29T11:15:05.461Z,61.66
2017-05-29T11:16:06.137Z,61.5
2017-05-29T11:17:06.821Z,61.89
2017-05-29T11:18:07.518Z,62.37
2017-05-29T11:19:08.215Z,67.66
2017-05-29T11:20:08.895Z,61.08
2017-05-29T11:21:09.579Z,62.53
2017-05-29T11:22:10.279Z,64.95
2017-05-29T11:23:10.937Z,63.4
2017-05-29T11:24:11.658Z,64.11
2017-05-29T11:25:12.345Z,62.24
2017-05-29T11:26:13.042Z,63.21
2017-05-29T11:27:13.711Z,62.53
2017-05-29T11:28:14.382Z,63.69
2017-05-29T11:29:15.052Z,63.79
2017-05-29T11:30:15.791Z,62.73
2017-05-29T11:31:16.483Z,61.76
2017-05-29T11:32:17.144Z,62.53
2017-05-29T11:33:17.839Z,62.15
2017-05-29T11:34:18.529Z,63.24
2017-05-29T11:35:19.223Z,63.31
2017-05-29T11:36:19.921Z,67.94
2017-05-29T11:37:20.588Z,62.24
2017-05-29T11:38:21.266Z,61.18
2017-05-29T11:39:21.937Z,61.66
2017-05-29T11:40:22.616Z,61.08
2017-05-29T11:41:23.309Z,60.5
2017-05-29T11:42:23.991Z,62.05
2017-05-29T11:43:24.705Z,60.79
2017-05-29T11:44:25.389Z,59.63
2017-05-29T11:45:26.049Z,60.5
2017-05-29T11:46:26.719Z,60.99
2017-05-29T11:47:27.400Z,60.5
2017-05-29T11:48:28.083Z,62.44
2017-05-29T11:49:28.748Z,61.66
2017-05-29T11:50:29.459Z,61.08
2017-05-29T11:51:30.124Z,61.95
2017-05-29T11:52:30.817Z,67.66
2017-05-29T11:53:31.490Z,63.14
2017-05-29T11:54:32.164Z,63.34
2017-05-29T11:55:32.874Z,63.89
2017-05-29T11:56:33.549Z,65.24
2017-05-29T11:57:34.279Z,62.89
2017-05-29T11:58:34.901Z,66.5
2017-05-29T11:59:35.578Z,67.24
2017-05-29T12:00:36.247Z,68.62
2017-05-29T12:01:36.957Z,67.24
2017-05-29T12:02:37.628Z,65.98
2017-05-29T12:03:38.305Z,63.85
2017-05-29T12:04:38.980Z,64.63
2017-05-29T12:05:39.670Z,62.31
2017-05-29T12:06:40.348Z,67.36
2017-05-29T12:07:41.036Z,67.66
2017-05-29T12:08:41.737Z,63.89
2017-05-29T12:09:42.417Z,61.37
2017-05-29T12:10:43.142Z,59.15
2017-05-29T12:11:43.824Z,63.5
2017-05-29T12:12:44.486Z,62.73
2017-05-29T12:13:45.156Z,63.89
2017-05-29T12:14:45.826Z,60.5
2017-05-29T12:15:46.525Z,66.98
2017-05-29T12:16:47.275Z,66.08
2017-05-29T12:17:47.946Z,61.05
2017-05-29T12:18:48.691Z,61.92
2017-05-29T12:19:49.364Z,59.89
2017-05-29T12:20:50.031Z,61.54
2017-05-29T12:21:50.709Z,63.02
2017-05-29T12:22:51.406Z,65.59
2017-05-29T12:23:52.103Z,66.08
2017-05-29T12:24:52.780Z,61.34
2017-05-29T12:25:53.444Z,63.98
2017-05-29T12:26:54.116Z,66.01
2017-05-29T12:27:54.788Z,62.82
2017-05-29T12:28:55.466Z,60.31
2017-05-29T12:29:56.138Z,61.08
2017-05-29T12:30:56.812Z,60.79
2017-05-29T12:31:57.480Z,63.89
2017-05-29T12:32:58.167Z,63.21
2017-05-29T12:33:58.847Z,64.66
2017-05-29T12:34:59.515Z,61.44
2017-05-29T12:36:00.189Z,61.47
2017-05-29T12:37:00.862Z,59.92
2017-05-29T12:38:01.578Z,60.79
2017-05-29T12:39:02.249Z,65.43
2017-05-29T12:40:02.937Z,65.05
2017-05-29T12:41:03.610Z,59.34
2017-05-29T12:42:04.280Z,58.95
2017-05-29T12:43:04.950Z,58.28
2017-05-29T12:44:05.621Z,57.15
2017-05-29T12:45:06.324Z,62.44
2017-05-29T12:46:07.007Z,64.95
2017-05-29T12:47:07.677Z,61.18
2017-05-29T12:48:08.347Z,63.14
2017-05-29T12:49:09.042Z,65.43
2017-05-29T12:50:09.703Z,59.34
2017-05-29T12:51:10.387Z,58.86
2017-05-29T12:52:11.051Z,60.63
2017-05-29T12:53:11.747Z,62.27
2017-05-29T12:54:12.432Z,64.08
2017-05-29T12:55:13.289Z,65.27
2017-05-29T12:56:13.959Z,60.6
2017-05-29T12:57:14.634Z,61.76
2017-05-29T12:58:15.306Z,63.11
2017-05-29T12:59:15.979Z,64.85
2017-05-29T13:00:16.644Z,61.27
2017-05-29T13:01:17.324Z,63.69
2017-05-29T13:02:17.996Z,58.67
2017-05-29T13:03:18.667Z,59.25
2017-05-29T13:04:19.347Z,60.99
2017-05-29T13:05:20.153Z,61.57
2017-05-29T13:06:20.839Z,65.69
2017-05-29T13:07:21.503Z,62.31
2017-05-29T13:08:22.190Z,60.69
2017-05-29T13:09:22.869Z,60.79
2017-05-29T13:10:23.532Z,58.28
2017-05-29T13:11:24.201Z,62.53
2017-05-29T13:12:24.867Z,60.11
2017-05-29T13:13:25.542Z,59.53
2017-05-29T13:14:26.235Z,64.21
2017-05-29T13:15:26.981Z,56.54
2017-05-29T13:16:27.634Z,52.99
2017-05-29T13:17:28.372Z,54.93
2017-05-29T13:18:29.081Z,55.99
2017-05-29T13:19:29.784Z,58.4
2017-05-29T13:20:30.508Z,60.05
2017-05-29T13:21:31.183Z,60.99
2017-05-29T13:22:31.857Z,58.28
2017-05-29T13:23:32.557Z,58.28
2017-05-29T13:24:33.230Z,54.83
2017-05-29T13:25:33.904Z,55.21
2017-05-29T13:26:34.606Z,58.47
2017-05-29T13:27:35.278Z,57.41
2017-05-29T13:28:35.960Z,55.7
2017-05-29T13:29:36.657Z,55.51
2017-05-29T13:30:37.343Z,55.02
2017-05-29T13:31:38.050Z,55.7
2017-05-29T13:32:38.746Z,53.96
2017-05-29T13:33:39.409Z,53.77
2017-05-29T13:34:40.078Z,53.89
2017-05-29T13:35:40.741Z,55.99
2017-05-29T13:36:41.436Z,56.57
2017-05-29T13:37:42.123Z,59.28
2017-05-29T13:38:42.821Z,55.7
2017-05-29T13:39:43.524Z,55.7
2017-05-29T13:40:44.197Z,57.54
2017-05-29T13:41:44.892Z,57.73
2017-05-29T13:42:45.550Z,56.76
2017-05-29T13:43:46.257Z,57.63
2017-05-29T13:44:46.942Z,54.85
2017-05-29T13:45:47.710Z,55.15
2017-05-29T13:46:48.422Z,56.3
2017-05-29T13:47:49.080Z,55.24
2017-05-29T13:48:49.755Z,56.6
2017-05-29T13:49:50.423Z,54.17
2017-05-29T13:50:51.101Z,54.75
2017-05-29T13:51:51.793Z,51.47
2017-05-29T13:52:52.452Z,52.44
2017-05-29T13:53:53.125Z,57.95
2017-05-29T13:54:53.794Z,55.82
2017-05-29T13:55:54.482Z,54.95
2017-05-29T13:56:55.150Z,52.34
2017-05-29T13:57:55.810Z,56.5
2017-05-29T13:58:56.486Z,57.46
2017-05-29T13:59:57.172Z,53.11
2017-05-29T14:00:57.983Z,52.44
2017-05-29T14:01:58.661Z,49.54
2017-05-29T14:02:59.330Z,55.92
2017-05-29T14:04:00.014Z,52.73
2017-05-29T14:05:00.684Z,53.79
2017-05-29T14:06:01.378Z,52.73
2017-05-29T14:07:02.072Z,50.98
2017-05-29T14:08:02.743Z,47.6
2017-05-29T14:09:03.420Z,48.37
2017-05-29T14:10:04.086Z,48.66
2017-05-29T14:11:04.766Z,49.05
2017-05-29T14:12:05.454Z,50.21
2017-05-29T14:13:06.187Z,53.41
2017-05-29T14:14:06.860Z,50.7
2017-05-29T14:15:07.541Z,51.76
2017-05-29T14:16:08.218Z,49.54
2017-05-29T14:17:08.898Z,48.57
2017-05-29T14:18:09.574Z,47.11
2017-05-29T14:19:10.260Z,47.62
2017-05-29T14:20:10.924Z,48.39
2017-05-29T14:21:11.609Z,51.56
2017-05-29T14:22:12.283Z,49.54
2017-05-29T14:23:12.974Z,48.49
2017-05-29T14:24:13.685Z,51.18
2017-05-29T14:25:14.380Z,49.34
2017-05-29T14:26:15.077Z,47.52
2017-05-29T14:27:15.746Z,47.62
2017-05-29T14:28:16.411Z,50.62
2017-05-29T14:29:17.099Z,46.84
2017-05-29T14:30:17.776Z,47.62
2017-05-29T14:31:18.464Z,46.36
2017-05-29T14:32:19.149Z,48.39
2017-05-29T14:33:19.813Z,47.24
2017-05-29T14:34:20.531Z,47.04
2017-05-29T14:35:21.212Z,47.14
2017-05-29T14:36:21.907Z,47.72
2017-05-29T14:37:22.594Z,47.52
2017-05-29T14:38:23.266Z,49.75
2017-05-29T14:39:23.962Z,47.33
2017-05-29T14:40:24.644Z,47.24
2017-05-29T14:41:25.316Z,48.39
2017-05-29T14:42:26.010Z,48.39
2017-05-29T14:43:26.692Z,48.71
2017-05-29T14:44:27.384Z,48.49
2017-05-29T14:45:28.069Z,49.68
2017-05-29T14:46:28.739Z,49.68
2017-05-29T14:47:29.431Z,49.65
2017-05-29T14:48:30.121Z,50.62
2017-05-29T14:49:30.841Z,51.68
2017-05-29T14:50:31.598Z,51.59
2017-05-29T14:51:32.341Z,52.66
2017-05-29T14:52:33.032Z,52.75
2017-05-29T14:53:33.707Z,52.36
2017-05-29T14:54:34.382Z,52.56
2017-05-29T14:55:35.053Z,52.85
2017-05-29T14:56:35.735Z,53.43
2017-05-29T14:57:36.407Z,53.55
2017-05-29T14:58:37.086Z,53.75
2017-05-29T14:59:37.763Z,53.91
2017-05-29T15:00:38.438Z,54.43
2017-05-29T15:01:39.116Z,55.3
2017-05-29T15:02:39.793Z,55.3
2017-05-29T15:03:40.476Z,55.68
2017-05-29T15:04:41.172Z,54.81
2017-05-29T15:05:41.864Z,55.68
2017-05-29T15:06:42.548Z,55.2
2017-05-29T15:07:43.225Z,54.03
2017-05-29T15:08:43.908Z,55.2
2017-05-29T15:09:44.591Z,55.07
2017-05-29T15:10:45.270Z,55.27
2017-05-29T15:11:45.939Z,55.66
2017-05-29T15:12:46.602Z,56.52
2017-05-29T15:13:47.333Z,56.72
2017-05-29T15:14:48.013Z,55.76
2017-05-29T15:15:48.718Z,56.52
2017-05-29T15:16:49.415Z,55.94
2017-05-29T15:17:50.094Z,55.94
2017-05-29T15:18:50.783Z,56.04
2017-05-29T15:19:51.459Z,56.52
2017-05-29T15:20:52.178Z,56.14
2017-05-29T15:21:52.894Z,55.85
2017-05-29T15:22:53.578Z,56.16
2017-05-29T15:23:54.246Z,56.07
2017-05-29T15:24:55.040Z,56.52
2017-05-29T15:25:55.718Z,55.94
2017-05-29T15:26:56.569Z,56.04
2017-05-29T15:27:57.241Z,55.94
2017-05-29T15:28:57.926Z,55.85
2017-05-29T15:29:58.608Z,55.94
2017-05-29T15:30:59.346Z,55.56
2017-05-29T15:32:00.354Z,55.36
2017-05-29T15:33:01.031Z,55.07
2017-05-29T15:34:01.720Z,55
2017-05-29T15:35:02.472Z,55.2
2017-05-29T15:36:03.147Z,54.33
2017-05-29T15:37:03.812Z,55.49
2017-05-29T15:38:04.509Z,55.58
2017-05-29T15:39:05.224Z,55.4
2017-05-29T15:40:05.894Z,54.91
2017-05-29T15:41:06.591Z,55.68
2017-05-29T15:42:07.300Z,55.3
2017-05-29T15:43:08.693Z,54.81
2017-05-29T15:44:09.390Z,55.4
2017-05-29T15:45:10.068Z,55.49
2017-05-29T15:46:10.741Z,55.68
2017-05-29T15:47:11.451Z,55
2017-05-29T15:48:12.119Z,55.49
2017-05-29T15:49:13.167Z,54.52
2017-05-29T15:50:13.905Z,54.98
2017-05-29T15:51:14.581Z,55.4
2017-05-29T15:52:15.258Z,54.91
2017-05-29T15:53:15.927Z,55.49
2017-05-29T15:54:16.613Z,55.2
2017-05-29T15:55:17.281Z,54.23
2017-05-29T15:56:17.955Z,54.91
2017-05-29T15:57:18.625Z,55.27
2017-05-29T15:58:19.309Z,54.98
2017-05-29T15:59:19.973Z,54.88
2017-05-29T16:00:20.653Z,56.26
2017-05-29T16:01:21.340Z,55.68
2017-05-29T16:02:22.015Z,55.68
2017-05-29T16:03:22.696Z,55.88
2017-05-29T16:04:23.398Z,55.78
2017-05-29T16:05:24.064Z,55.49
2017-05-29T16:06:24.764Z,55.3
2017-05-29T16:07:25.450Z,55.49
2017-05-29T16:08:26.126Z,56.46
2017-05-29T16:09:26.838Z,56.26
2017-05-29T16:10:27.511Z,56.46
2017-05-29T16:11:28.182Z,56.94
2017-05-29T16:12:28.864Z,56.46
2017-05-29T16:13:30.870Z,56.65
2017-05-29T16:14:31.556Z,55.88
2017-05-29T16:15:32.264Z,56.65
2017-05-29T16:16:32.940Z,56.26
2017-05-29T16:17:33.614Z,55.78
2017-05-29T16:18:34.298Z,55.98
2017-05-29T16:19:34.965Z,55.88
2017-05-29T16:20:35.690Z,57.23
2017-05-29T16:21:36.346Z,57.23
2017-05-29T16:22:37.035Z,56.85
2017-05-29T16:23:37.704Z,56.56
2017-05-29T16:24:38.396Z,57.53
2017-05-29T16:25:39.065Z,57.33
2017-05-29T16:26:39.765Z,57.04
2017-05-29T16:27:40.445Z,57.71
2017-05-29T16:28:41.114Z,56.94
2017-05-29T16:29:41.810Z,56.75
2017-05-29T16:30:42.503Z,56.65
2017-05-29T16:31:43.195Z,57.23
2017-05-29T16:32:43.916Z,57.53
2017-05-29T16:33:44.588Z,58.11
2017-05-29T16:34:45.323Z,57.71
2017-05-29T16:35:46.019Z,57.23
2017-05-29T16:36:46.778Z,57.04
2017-05-29T16:37:47.461Z,57.43
2017-05-29T16:38:48.157Z,57.23
2017-05-29T16:39:48.863Z,56.94
2017-05-29T16:40:49.525Z,56.72
2017-05-29T16:41:50.445Z,56.43
2017-05-29T16:42:51.125Z,56.82
2017-05-29T16:43:51.805Z,57.11
2017-05-29T16:44:52.478Z,57.69
2017-05-29T16:45:53.147Z,56.62
2017-05-29T16:46:53.841Z,57.11
2017-05-29T16:47:54.559Z,57.11
2017-05-29T16:48:55.219Z,57.2
2017-05-29T16:49:55.914Z,57.59
2017-05-29T16:50:56.653Z,56.82
2017-05-29T16:51:57.356Z,56.92
2017-05-29T16:52:58.102Z,56.82
2017-05-29T16:53:58.783Z,56.82
2017-05-29T16:54:59.469Z,57.11
2017-05-29T16:56:00.184Z,56.82
2017-05-29T16:57:00.809Z,56.92
2017-05-29T16:58:01.492Z,57.59
2017-05-29T16:59:02.170Z,57.69
2017-05-29T17:00:02.840Z,57.11
2017-05-29T17:01:03.514Z,56.92
2017-05-29T17:02:04.242Z,57.59
2017-05-29T17:03:04.941Z,57.59
2017-05-29T17:04:05.602Z,57.69
2017-05-29T17:05:06.290Z,57.79
2017-05-29T17:06:06.962Z,58.07
2017-05-29T17:07:07.645Z,58.37
2017-05-29T17:08:08.324Z,59.33
2017-05-29T17:09:09.002Z,59.72
2017-05-29T17:10:09.678Z,60.11
2017-05-29T17:11:10.357Z,59.63
2017-05-29T17:12:11.034Z,59.98
2017-05-29T17:13:11.698Z,59.53
2017-05-29T17:14:12.376Z,59.11
2017-05-29T17:15:13.036Z,59.59
2017-05-29T17:16:13.728Z,59.89
2017-05-29T17:17:14.410Z,60.27
2017-05-29T17:18:15.093Z,60.37
2017-05-29T17:19:15.799Z,60.37
2017-05-29T17:20:16.484Z,61.05
2017-05-29T17:21:17.158Z,60.95
2017-05-29T17:22:17.829Z,61.33
2017-05-29T17:23:18.550Z,61.43
2017-05-29T17:24:19.252Z,62.11
2017-05-29T17:25:19.916Z,61.82
2017-05-29T17:26:20.597Z,62.18
2017-05-29T17:27:21.250Z,62.69
2017-05-29T17:28:21.934Z,62.4
2017-05-29T17:29:22.603Z,62.88
2017-05-29T17:30:23.312Z,63.27
2017-05-29T17:31:23.988Z,62.95
2017-05-29T17:32:24.684Z,63.73
2017-05-29T17:33:25.392Z,63.82
2017-05-29T17:34:26.074Z,63.43
2017-05-29T17:35:26.736Z,64.11
2017-05-29T17:36:27.418Z,64.31
2017-05-29T17:37:28.087Z,64.59
2017-05-29T17:38:28.779Z,65.08
2017-05-29T17:39:29.454Z,64.5
2017-05-29T17:40:30.134Z,64.89
2017-05-29T17:41:30.801Z,64.89
2017-05-29T17:42:31.505Z,64.59
2017-05-29T17:43:32.169Z,64.98
2017-05-29T17:44:32.863Z,64.98
2017-05-29T17:45:33.545Z,64.98
2017-05-29T17:46:34.237Z,65.08
2017-05-29T17:47:34.917Z,65.37
2017-05-29T17:48:35.607Z,64.79
2017-05-29T17:49:36.272Z,65.56
2017-05-29T17:50:36.952Z,65.56
2017-05-29T17:51:37.628Z,65.75
2017-05-29T17:52:38.315Z,65.53
2017-05-29T17:53:38.994Z,65.47
2017-05-29T17:54:39.668Z,65.85
2017-05-29T17:55:40.378Z,65.95
2017-05-29T17:56:41.046Z,66.24
2017-05-29T17:57:41.736Z,66.14
2017-05-29T17:58:42.421Z,65.56
2017-05-29T17:59:43.104Z,65.56
2017-05-29T18:00:43.801Z,65.85
2017-05-29T18:01:44.462Z,65.66
2017-05-29T18:02:45.123Z,66.24
2017-05-29T18:03:45.795Z,66.33
2017-05-29T18:04:46.474Z,66.82
2017-05-29T18:05:47.175Z,67.01
2017-05-29T18:06:47.871Z,67.69
2017-05-29T18:07:48.533Z,68.04
2017-05-29T18:08:49.248Z,68.24
2017-05-29T18:09:49.970Z,68.43
2017-05-29T18:10:50.648Z,68.52
2017-05-29T18:11:51.325Z,69.1
2017-05-29T18:12:52.036Z,69.1
2017-05-29T18:13:52.813Z,69.3
2017-05-29T18:14:53.491Z,69.59
2017-05-29T18:15:54.186Z,69.88
2017-05-29T18:16:55.154Z,69.98
2017-05-29T18:17:56.247Z,69.59
2017-05-29T18:18:57.200Z,69.98
2017-05-29T18:19:58.281Z,69.49
2017-05-29T18:20:58.978Z,69.68
2017-05-29T18:21:59.643Z,69.88
2017-05-29T18:23:00.339Z,70.17
2017-05-29T18:24:01.001Z,69.84
2017-05-29T18:25:01.682Z,69.88
2017-05-29T18:26:02.366Z,69.56
2017-05-29T18:27:03.037Z,70.14
2017-05-29T18:28:03.750Z,69.84
2017-05-29T18:29:04.420Z,69.84
2017-05-29T18:30:05.082Z,70.14
2017-05-29T18:31:05.789Z,69.56
2017-05-29T18:32:06.476Z,70.23
2017-05-29T18:33:07.148Z,70.14
2017-05-29T18:34:07.871Z,70.04
2017-05-29T18:35:08.544Z,70.62
2017-05-29T18:36:09.241Z,69.94
2017-05-29T18:37:09.972Z,70.81
2017-05-29T18:38:10.608Z,70.32
2017-05-29T18:39:11.278Z,70.81
2017-05-29T18:40:11.964Z,70.32
2017-05-29T18:41:12.635Z,70.52
2017-05-29T18:42:13.313Z,70.9
2017-05-29T18:43:14.027Z,70.42
2017-05-29T18:44:14.928Z,70.81
2017-05-29T18:45:15.701Z,71.2
2017-05-29T18:46:16.406Z,70.72
2017-05-29T18:47:17.208Z,70.9
2017-05-29T18:48:18.007Z,70.78
2017-05-29T18:49:18.732Z,70.62
2017-05-29T18:50:19.411Z,70.68
2017-05-29T18:51:20.114Z,70.81
2017-05-29T18:52:20.819Z,71
2017-05-29T18:53:21.497Z,71.39
2017-05-29T18:54:22.191Z,70.97
2017-05-29T18:55:22.941Z,70
2017-05-29T18:56:23.681Z,70.78
2017-05-29T18:57:24.357Z,70
2017-05-29T18:58:25.048Z,70.2
2017-05-29T18:59:25.945Z,69.71
2017-05-29T19:00:26.729Z,69.62
2017-05-29T19:01:27.434Z,69.52
2017-05-29T19:02:28.199Z,69.62
2017-05-29T19:03:28.975Z,70.2
2017-05-29T19:04:29.811Z,69.62
2017-05-29T19:05:30.501Z,69.62
2017-05-29T19:06:31.187Z,69.62
2017-05-29T19:07:31.877Z,70.1
2017-05-29T19:08:32.544Z,70
2017-05-29T19:09:33.214Z,70
2017-05-29T19:10:33.890Z,70
2017-05-29T19:11:34.851Z,70.78
2017-05-29T19:12:35.689Z,70.78
2017-05-29T19:13:36.379Z,70.97
2017-05-29T19:14:37.058Z,70.68
2017-05-29T19:15:37.754Z,71.06
2017-05-29T19:16:38.704Z,71.36
2017-05-29T19:17:39.702Z,71.26
2017-05-29T19:18:40.380Z,71.45
2017-05-29T19:19:41.044Z,71.94
2017-05-29T19:20:41.730Z,72.03
2017-05-29T19:21:42.511Z,72.13
2017-05-29T19:22:43.179Z,71.84
2017-05-29T19:23:43.849Z,71.94
2017-05-29T19:24:44.628Z,72.32
2017-05-29T19:25:45.305Z,72.19
2017-05-29T19:26:46.003Z,72.42
2017-05-29T19:27:46.666Z,72.61
2017-05-29T19:28:47.379Z,73.15
2017-05-29T19:29:48.048Z,73.25
2017-05-29T19:30:48.721Z,73.77
2017-05-29T19:31:49.413Z,73.63
2017-05-29T19:32:50.379Z,73.44
2017-05-29T19:33:51.455Z,73.06
2017-05-29T19:34:52.392Z,73.35
2017-05-29T19:35:53.478Z,73.58
2017-05-29T19:36:54.304Z,73.54
2017-05-29T19:37:55.068Z,73.44
2017-05-29T19:38:55.912Z,73.67
2017-05-29T19:39:56.682Z,73.73
2017-05-29T19:40:57.518Z,74.12
2017-05-29T19:41:58.337Z,73.73
2017-05-29T19:42:59.061Z,74.02
2017-05-29T19:43:59.821Z,74.6
2017-05-29T19:45:00.537Z,74.69
2017-05-29T19:46:01.294Z,75.18
2017-05-29T19:47:01.985Z,74.89
2017-05-29T19:48:02.746Z,75.09
2017-05-29T19:49:03.766Z,75.27
2017-05-29T19:50:04.987Z,75.47
2017-05-29T19:51:05.770Z,75.85
2017-05-29T19:52:06.605Z,75.67
2017-05-29T19:53:07.378Z,76.24
2017-05-29T19:54:08.535Z,76.15
2017-05-29T19:55:09.443Z,75.85
2017-05-29T19:56:10.183Z,76.05
2017-05-29T19:57:11.040Z,76.34
2017-05-29T19:58:12.509Z,76.53
2017-05-29T19:59:13.766Z,76.53
2017-05-29T20:00:14.981Z,76.82